Pagina principale
METAR-TAF:

METAR-TAF

Aeroporti :

Fort Richardson, Alaska, Stati Uniti

latitudine: 61-15-45N, longitudine: 149-39-17W, altezza: 115 m

Osservazione

Il bollettino è stato emesso 29 minuti fa, alle 02:25 UTC
Vento 6 kt da sud-est
Temperature 14°C
Umidità 51%
Pressione 1001 hPa
Visibilità: 14.5 km
Nuvoloso ad un'altezza di 5000 ft
Cielo coperto ad un'altezza di 7000 ft

METAR: PAFR 260225Z AUTO 14006KT 9SM BKN050 OVC070 14/04 A2956 RMK AO2 SLP016 $

Ora: 18:54 (02:54 UTC)


TAF: mancante

Osservazioni e previsioni meteorologiche di più di 4000 aeroporti (messaggi METAR e TAF).

Le stazioni disponibili sono rappresentate dai dischi gialli e rossi sulla carta.

Puntare il mouse per vedere il nome della stazione.

Clicca sopra per visualizzare le osservazioni e previsioni meteorologiche.

Per cambiare la mappa : fare clic sui pulsanti verdi con una croce nera per ingrandire, il pulsante verde con un trattino per diminuire, o sulla freccia verde per le mappe adiacenti.


METAR-TAF: